createdAt,value
2018-05-14T00:02:26.822Z,74.57
2018-05-14T00:04:55.926Z,72.83
2018-05-14T00:07:25.064Z,72.43
2018-05-14T00:09:54.219Z,72.20
2018-05-14T00:12:23.497Z,73.90
2018-05-14T00:14:52.693Z,74.70
2018-05-14T00:17:21.907Z,73.77
2018-05-14T00:19:51.001Z,73.37
2018-05-14T00:22:20.101Z,70.53
2018-05-14T00:24:49.219Z,74.17
2018-05-14T00:27:19.298Z,76.70
2018-05-14T00:29:48.494Z,73.43
2018-05-14T00:32:17.616Z,77.20
2018-05-14T00:34:46.725Z,73.00
2018-05-14T00:37:15.898Z,76.97
2018-05-14T00:39:45.064Z,77.20
2018-05-14T00:42:14.275Z,72.10
2018-05-14T00:44:43.401Z,72.30
2018-05-14T00:47:12.517Z,72.03
2018-05-14T00:49:41.650Z,74.90
2018-05-14T00:52:10.752Z,74.13
2018-05-14T00:54:45.767Z,73.90
2018-05-14T00:57:14.969Z,72.70
2018-05-14T00:59:44.176Z,75.60
2018-05-14T01:02:13.367Z,76.07
2018-05-14T01:04:42.469Z,75.40
2018-05-14T01:07:12.605Z,71.87
2018-05-14T01:09:41.741Z,73.47
2018-05-14T01:12:10.880Z,75.77
2018-05-14T01:14:40.112Z,74.60
2018-05-14T01:17:09.212Z,73.83
2018-05-14T01:19:38.354Z,81.37
2018-05-14T01:22:07.436Z,74.33
2018-05-14T01:24:36.561Z,76.80
2018-05-14T01:27:05.653Z,75.17
2018-05-14T01:29:34.802Z,77.50
2018-05-14T01:32:03.916Z,74.13
2018-05-14T01:34:33.137Z,75.37
2018-05-14T01:37:02.237Z,76.80
2018-05-14T01:39:31.413Z,76.87
2018-05-14T01:42:00.536Z,75.37
2018-05-14T01:44:29.645Z,78.33
2018-05-14T01:46:58.787Z,74.63
2018-05-14T01:49:27.892Z,73.53
2018-05-14T01:51:57.026Z,77.17
2018-05-14T01:54:26.230Z,78.60
2018-05-14T01:56:55.349Z,74.77
2018-05-14T01:59:25.477Z,77.40
2018-05-14T02:01:54.589Z,76.17
2018-05-14T02:04:23.875Z,74.63
2018-05-14T02:06:53.157Z,73.20
2018-05-14T02:09:22.227Z,73.63
2018-05-14T02:11:51.373Z,77.47
2018-05-14T02:14:20.494Z,75.67
2018-05-14T02:16:49.653Z,70.57
2018-05-14T02:19:18.742Z,64.27
2018-05-14T02:21:48.986Z,66.00
2018-05-14T02:24:18.109Z,67.37
2018-05-14T02:26:47.249Z,64.00
2018-05-14T02:29:16.428Z,66.63
2018-05-14T02:31:45.554Z,71.37
2018-05-14T02:34:14.666Z,68.90
2018-05-14T02:36:43.862Z,67.77
2018-05-14T02:39:12.981Z,66.10
2018-05-14T02:41:42.150Z,63.10
2018-05-14T02:44:11.337Z,67.00
2018-05-14T02:46:40.517Z,67.47
2018-05-14T02:49:09.741Z,66.00
2018-05-14T02:51:39.015Z,63.70
2018-05-14T02:54:08.330Z,66.27
2018-05-14T02:56:37.440Z,63.50
2018-05-14T02:59:06.549Z,63.37
2018-05-14T03:01:35.682Z,62.90
2018-05-14T03:04:04.797Z,63.57
2018-05-14T03:06:33.926Z,62.70
2018-05-14T03:09:03.041Z,60.27
2018-05-14T03:11:32.137Z,63.43
2018-05-14T03:14:01.286Z,61.73
2018-05-14T03:16:30.399Z,64.13
2018-05-14T03:18:59.586Z,60.90
2018-05-14T03:21:28.701Z,58.40
2018-05-14T03:23:57.856Z,57.53
2018-05-14T03:26:26.956Z,63.27
2018-05-14T03:28:56.140Z,63.37
2018-05-14T03:31:25.337Z,60.17
2018-05-14T03:33:54.444Z,58.93
2018-05-14T03:36:23.568Z,58.07
2018-05-14T03:38:52.701Z,58.53
2018-05-14T03:41:21.811Z,59.77
2018-05-14T03:43:50.921Z,60.20
2018-05-14T03:46:20.120Z,57.67
2018-05-14T03:48:49.237Z,59.73
2018-05-14T03:51:18.330Z,56.63
2018-05-14T03:53:47.441Z,57.60
2018-05-14T03:56:16.563Z,58.40
2018-05-14T03:58:51.505Z,59.07
2018-05-14T04:01:26.549Z,60.80
2018-05-14T04:04:01.469Z,59.20
2018-05-14T04:06:37.471Z,59.80
2018-05-14T04:09:06.565Z,58.57
2018-05-14T04:11:35.681Z,59.40
2018-05-14T04:14:05.734Z,61.73
2018-05-14T04:16:35.915Z,59.20
2018-05-14T04:19:04.981Z,61.00
2018-05-14T04:21:34.143Z,58.80
2018-05-14T04:24:03.257Z,64.30
2018-05-14T04:26:32.387Z,59.97
2018-05-14T04:29:01.503Z,62.27
2018-05-14T04:31:30.613Z,59.33
2018-05-14T04:33:59.830Z,58.50
2018-05-14T04:36:29.024Z,61.13
2018-05-14T04:38:58.116Z,63.80
2018-05-14T04:41:27.229Z,63.47
2018-05-14T04:43:56.410Z,61.43
2018-05-14T04:46:25.563Z,61.97
2018-05-14T04:48:54.649Z,63.50
2018-05-14T04:51:23.773Z,60.10
2018-05-14T04:53:53.085Z,62.20
2018-05-14T04:56:22.285Z,61.23
2018-05-14T04:58:51.378Z,61.37
2018-05-14T05:01:20.494Z,62.40
2018-05-14T05:03:49.658Z,65.00
2018-05-14T05:06:18.761Z,64.27
2018-05-14T05:08:47.885Z,62.47
2018-05-14T05:11:16.991Z,66.53
2018-05-14T05:13:46.138Z,64.63
2018-05-14T05:16:15.269Z,63.30
2018-05-14T05:18:44.383Z,67.03
2018-05-14T05:21:13.477Z,66.17
2018-05-14T05:23:42.610Z,65.10
2018-05-14T05:26:11.834Z,65.30
2018-05-14T05:28:40.963Z,65.60
2018-05-14T05:31:10.067Z,66.03
2018-05-14T05:33:39.202Z,64.57
2018-05-14T05:36:08.303Z,67.60
2018-05-14T05:38:37.493Z,63.73
2018-05-14T05:41:06.679Z,61.53
2018-05-14T05:43:35.808Z,64.00
2018-05-14T05:46:04.902Z,61.90
2018-05-14T05:48:34.113Z,62.10
2018-05-14T05:51:03.293Z,60.67
2018-05-14T05:53:32.521Z,65.43
2018-05-14T05:56:01.622Z,64.43
2018-05-14T05:58:30.854Z,62.50
2018-05-14T06:00:59.967Z,63.83
2018-05-14T06:03:30.082Z,65.30
2018-05-14T06:05:59.165Z,63.30
2018-05-14T06:08:28.394Z,60.83
2018-05-14T06:10:57.561Z,61.07
2018-05-14T06:13:28.673Z,61.47
2018-05-14T06:15:57.895Z,62.43
2018-05-14T06:18:27.094Z,64.37
2018-05-14T06:20:56.345Z,60.50
2018-05-14T06:23:25.487Z,58.60
2018-05-14T06:25:55.568Z,59.77
2018-05-14T06:28:24.803Z,56.70
2018-05-14T06:30:53.943Z,56.17
2018-05-14T06:33:23.059Z,58.33
2018-05-14T06:35:52.169Z,54.43
2018-05-14T06:38:21.367Z,57.37
2018-05-14T06:40:50.588Z,57.30
2018-05-14T06:43:19.762Z,58.50
2018-05-14T06:45:48.960Z,55.17
2018-05-14T06:48:18.119Z,54.23
2018-05-14T06:50:47.243Z,53.77
2018-05-14T06:53:16.339Z,53.93
2018-05-14T06:55:45.546Z,53.10
2018-05-14T06:58:14.748Z,55.33
2018-05-14T07:00:44.849Z,54.97
2018-05-14T07:03:14.149Z,50.17
2018-05-14T07:05:43.435Z,49.17
2018-05-14T07:08:12.399Z,49.07
2018-05-14T07:10:41.504Z,49.37
2018-05-14T07:13:10.656Z,50.50
2018-05-14T07:15:39.744Z,52.17
2018-05-14T07:18:08.877Z,50.37
2018-05-14T07:20:38.038Z,50.40
2018-05-14T07:23:07.211Z,47.97
2018-05-14T07:25:36.320Z,47.17
2018-05-14T07:28:05.493Z,46.17
2018-05-14T07:30:34.614Z,44.87
2018-05-14T07:33:05.710Z,46.73
2018-05-14T07:35:34.831Z,45.90
2018-05-14T07:38:03.921Z,48.30
2018-05-14T07:40:33.148Z,45.83
2018-05-14T07:43:04.145Z,45.67
2018-05-14T07:45:33.280Z,45.30
2018-05-14T07:48:02.440Z,47.00
2018-05-14T07:50:31.643Z,45.80
2018-05-14T07:53:01.762Z,43.23
2018-05-14T07:55:30.865Z,45.60
2018-05-14T07:57:59.983Z,45.93
2018-05-14T08:00:29.410Z,46.13
2018-05-14T08:02:58.522Z,42.67
2018-05-14T08:05:27.797Z,45.63
2018-05-14T08:07:56.757Z,44.23
2018-05-14T08:10:26.011Z,45.90
2018-05-14T08:12:55.410Z,46.40
2018-05-14T08:15:24.533Z,42.90
2018-05-14T08:17:53.742Z,42.80
2018-05-14T08:20:22.854Z,40.43
2018-05-14T08:22:52.021Z,42.93
2018-05-14T08:25:21.229Z,41.67
2018-05-14T08:27:50.323Z,41.17
2018-05-14T08:30:19.542Z,40.57
2018-05-14T08:32:48.691Z,41.70
2018-05-14T08:35:20.384Z,41.70
2018-05-14T08:37:49.561Z,40.90
2018-05-14T08:40:18.932Z,41.63
2018-05-14T08:42:47.841Z,40.47
2018-05-14T08:45:16.936Z,40.20
2018-05-14T08:47:46.056Z,41.03
2018-05-14T08:50:15.165Z,41.20
2018-05-14T08:52:44.273Z,41.00
2018-05-14T08:55:13.413Z,40.90
2018-05-14T08:57:42.702Z,41.37
2018-05-14T09:00:11.799Z,43.57
2018-05-14T09:02:40.900Z,39.70
2018-05-14T09:05:10.383Z,39.57
2018-05-14T09:07:39.361Z,40.40
2018-05-14T09:10:08.502Z,39.07
2018-05-14T09:12:37.609Z,40.97
2018-05-14T09:15:06.789Z,39.03
2018-05-14T09:17:35.938Z,40.03
2018-05-14T09:20:05.970Z,40.03
2018-05-14T09:22:36.229Z,39.70
2018-05-14T09:25:05.402Z,39.43
2018-05-14T09:27:34.642Z,38.20
2018-05-14T09:30:03.771Z,39.93
2018-05-14T09:32:32.921Z,39.47
2018-05-14T09:35:02.115Z,40.40
2018-05-14T09:37:33.229Z,39.93
2018-05-14T09:40:02.431Z,39.90
2018-05-14T09:42:31.578Z,40.57
2018-05-14T09:45:00.867Z,40.00
2018-05-14T09:47:30.089Z,38.80
2018-05-14T09:49:59.197Z,39.20
2018-05-14T09:52:29.305Z,39.77
2018-05-14T09:54:58.544Z,38.30
2018-05-14T09:57:27.677Z,38.63
2018-05-14T09:59:56.766Z,38.77
2018-05-14T10:02:25.894Z,38.27
2018-05-14T10:04:55.023Z,37.13
2018-05-14T10:07:24.133Z,36.43
2018-05-14T10:09:53.264Z,37.77
2018-05-14T10:12:22.628Z,36.67
2018-05-14T10:14:51.700Z,36.53
2018-05-14T10:17:20.804Z,35.17
2018-05-14T10:19:49.947Z,37.77
2018-05-14T10:22:18.778Z,36.33
2018-05-14T10:24:47.566Z,36.57
2018-05-14T10:27:16.371Z,31.90
2018-05-14T10:29:45.237Z,33.60
2018-05-14T10:32:14.056Z,35.00
2018-05-14T10:34:42.969Z,35.97
2018-05-14T10:37:11.783Z,34.03
2018-05-14T10:39:40.586Z,35.03
2018-05-14T10:42:09.410Z,33.20
2018-05-14T10:44:38.347Z,34.90
2018-05-14T10:47:07.460Z,31.17
2018-05-14T10:49:36.670Z,28.60
2018-05-14T10:52:05.797Z,29.97
2018-05-14T10:54:34.901Z,30.07
2018-05-14T10:57:04.125Z,31.70
2018-05-14T10:59:31.595Z,31.70
2018-05-14T11:01:59.049Z,31.13
2018-05-14T11:04:28.209Z,32.60
2018-05-14T11:06:55.714Z,26.93
2018-05-14T11:09:23.941Z,26.33
2018-05-14T11:11:51.407Z,25.83
2018-05-14T11:14:19.002Z,24.80
2018-05-14T11:16:47.246Z,26.80
2018-05-14T11:19:14.704Z,25.63
2018-05-14T11:21:42.276Z,26.60
2018-05-14T11:24:09.849Z,25.47
2018-05-14T11:26:38.079Z,25.40
2018-05-14T11:29:05.551Z,22.90
2018-05-14T11:31:33.097Z,23.80
2018-05-14T11:34:00.556Z,22.30
2018-05-14T11:36:28.136Z,23.10
2018-05-14T11:38:55.590Z,22.80
2018-05-14T11:41:23.159Z,22.70
2018-05-14T11:43:51.384Z,21.50
2018-05-14T11:46:18.886Z,18.87
2018-05-14T11:48:47.155Z,19.57
2018-05-14T11:51:14.635Z,19.10
2018-05-14T11:53:42.776Z,18.40
2018-05-14T11:56:10.247Z,19.30
2018-05-14T11:58:38.471Z,18.23
2018-05-14T12:01:05.920Z,18.77
2018-05-14T12:03:33.388Z,19.00
2018-05-14T12:06:00.857Z,17.40
2018-05-14T12:08:28.354Z,16.50
2018-05-14T12:10:56.557Z,14.57
2018-05-14T12:13:24.141Z,15.30
2018-05-14T12:15:51.703Z,12.77
2018-05-14T12:18:19.299Z,13.20
2018-05-14T12:20:47.841Z,13.90
2018-05-14T12:23:15.302Z,12.70
2018-05-14T12:25:42.956Z,13.00
2018-05-14T12:28:10.418Z,14.10
2018-05-14T12:30:37.971Z,14.30
2018-05-14T12:33:05.427Z,12.23
2018-05-14T12:35:33.867Z,12.40
2018-05-14T12:38:01.433Z,11.93
2018-05-14T12:40:28.945Z,9.90
2018-05-14T12:42:56.498Z,9.53
2018-05-14T12:45:23.961Z,8.93
2018-05-14T12:47:52.201Z,10.47
2018-05-14T12:50:19.658Z,9.93
2018-05-14T12:52:47.115Z,9.00
2018-05-14T12:55:14.685Z,9.77
2018-05-14T12:57:42.155Z,8.20
2018-05-14T13:00:11.411Z,8.50
2018-05-14T13:02:39.103Z,7.67
2018-05-14T13:05:06.560Z,8.30
2018-05-14T13:07:34.023Z,8.27
2018-05-14T13:10:01.557Z,8.17
2018-05-14T13:12:29.015Z,7.90
2018-05-14T13:14:56.706Z,8.73
2018-05-14T13:17:24.944Z,7.80
2018-05-14T13:19:52.528Z,6.77
2018-05-14T13:22:19.991Z,8.30
2018-05-14T13:24:48.224Z,8.73
2018-05-14T13:27:15.667Z,7.93
2018-05-14T13:29:43.152Z,7.73
2018-05-14T13:32:10.677Z,7.63
2018-05-14T13:34:38.888Z,6.97
2018-05-14T13:37:06.334Z,8.03
2018-05-14T13:39:33.801Z,7.43
2018-05-14T13:42:01.267Z,6.93
2018-05-14T13:44:29.283Z,6.97
2018-05-14T13:46:56.928Z,6.20
2018-05-14T13:49:24.387Z,7.50
2018-05-14T13:51:51.927Z,6.90
2018-05-14T13:54:20.490Z,7.27
2018-05-14T13:56:48.044Z,7.43
2018-05-14T13:59:15.592Z,6.90
2018-05-14T14:01:43.246Z,7.00
2018-05-14T14:04:10.696Z,7.43
2018-05-14T14:06:38.140Z,7.10
2018-05-14T14:09:05.678Z,7.20
2018-05-14T14:11:33.211Z,7.07
2018-05-14T14:14:00.641Z,6.70
2018-05-14T14:16:28.087Z,6.43
2018-05-14T14:18:55.530Z,6.33
2018-05-14T14:21:22.996Z,6.87
2018-05-14T14:23:50.870Z,6.30
2018-05-14T14:26:18.106Z,6.20
2018-05-14T14:28:45.572Z,5.70
2018-05-14T14:31:13.051Z,6.50
2018-05-14T14:33:41.248Z,5.90
2018-05-14T14:36:08.837Z,5.80
2018-05-14T14:38:36.297Z,6.53
2018-05-14T14:41:03.856Z,6.30
2018-05-14T14:43:31.314Z,6.93
2018-05-14T14:45:58.869Z,6.30
2018-05-14T14:48:26.470Z,6.43
2018-05-14T14:50:54.026Z,6.03
2018-05-14T14:53:21.512Z,6.17
2018-05-14T14:55:48.986Z,6.97
2018-05-14T14:58:16.441Z,6.30
2018-05-14T15:00:44.005Z,5.93
2018-05-14T15:03:11.459Z,6.27
2018-05-14T15:05:39.028Z,6.30
2018-05-14T15:08:07.408Z,5.90
2018-05-14T15:10:34.898Z,6.67
2018-05-14T15:13:03.138Z,6.10
2018-05-14T15:15:30.691Z,5.93
2018-05-14T15:18:00.508Z,5.90
2018-05-14T15:20:28.084Z,5.63
2018-05-14T15:22:55.526Z,5.80
2018-05-14T15:25:23.071Z,5.80
2018-05-14T15:27:50.554Z,6.10
2018-05-14T15:30:18.774Z,4.90
2018-05-14T15:32:46.299Z,5.23
2018-05-14T15:35:14.502Z,5.57
2018-05-14T15:37:41.971Z,4.83
2018-05-14T15:40:09.448Z,5.50
2018-05-14T15:42:37.010Z,5.40
2018-05-14T15:45:04.567Z,5.17
2018-05-14T15:47:32.009Z,5.10
2018-05-14T15:49:59.616Z,4.80
2018-05-14T15:52:27.066Z,4.90
2018-05-14T15:54:57.187Z,5.47
2018-05-14T15:57:24.643Z,5.00
2018-05-14T15:59:52.894Z,4.63
2018-05-14T16:02:20.349Z,5.30
2018-05-14T16:04:48.126Z,5.23
2018-05-14T16:07:16.349Z,5.13
2018-05-14T16:09:43.794Z,4.60
2018-05-14T16:12:12.205Z,4.80
2018-05-14T16:14:40.000Z,4.80
2018-05-14T16:17:08.334Z,5.00
2018-05-14T16:19:35.897Z,5.20
2018-05-14T16:22:03.355Z,4.60
2018-05-14T16:24:30.813Z,4.47
2018-05-14T16:26:58.367Z,4.70
2018-05-14T16:29:25.804Z,4.40
2018-05-14T16:31:53.530Z,4.80
2018-05-14T16:34:22.138Z,5.07
2018-05-14T16:36:49.639Z,5.10
2018-05-14T16:39:17.198Z,4.70
2018-05-14T16:41:44.709Z,4.50
2018-05-14T16:44:12.206Z,4.70
2018-05-14T16:46:39.748Z,4.97
2018-05-14T16:49:07.209Z,4.83
2018-05-14T16:51:34.829Z,4.70
2018-05-14T16:54:02.282Z,4.67
2018-05-14T16:56:29.774Z,5.17
2018-05-14T16:58:57.336Z,4.90
2018-05-14T17:01:24.801Z,4.77
2018-05-14T17:03:52.368Z,4.23
2018-05-14T17:06:19.843Z,5.23
2018-05-14T17:08:48.071Z,4.63
2018-05-14T17:11:15.643Z,4.80
2018-05-14T17:13:43.186Z,4.83
2018-05-14T17:16:10.756Z,4.97
2018-05-14T17:18:38.300Z,4.80
2018-05-14T17:21:05.865Z,4.73
2018-05-14T17:23:33.353Z,5.00
2018-05-14T17:26:01.616Z,4.47
2018-05-14T17:28:29.090Z,5.07
2018-05-14T17:30:57.442Z,5.67
2018-05-14T17:33:24.986Z,4.70
2018-05-14T17:35:52.502Z,4.80
2018-05-14T17:38:20.005Z,4.77
2018-05-14T17:40:47.559Z,4.93
2018-05-14T17:43:15.026Z,5.30
2018-05-14T17:45:42.582Z,4.87
2018-05-14T17:48:10.300Z,5.60
2018-05-14T17:50:38.424Z,5.73
2018-05-14T17:53:05.916Z,5.00
2018-05-14T17:55:33.421Z,5.10
2018-05-14T17:58:00.981Z,5.43
2018-05-14T18:00:28.754Z,5.17
2018-05-14T18:02:56.230Z,5.23
2018-05-14T18:05:24.503Z,5.33
2018-05-14T18:07:51.955Z,5.77
2018-05-14T18:10:20.159Z,5.87
2018-05-14T18:12:47.632Z,5.20
2018-05-14T18:15:15.071Z,5.00
2018-05-14T18:17:42.665Z,5.37
2018-05-14T18:20:15.818Z,5.27
2018-05-14T18:22:43.309Z,5.00
2018-05-14T18:25:16.346Z,5.13
2018-05-14T18:27:49.598Z,5.03
2018-05-14T18:30:22.890Z,5.73
2018-05-14T18:32:54.352Z,5.40
2018-05-14T18:35:21.815Z,5.17
2018-05-14T18:37:50.097Z,5.93
2018-05-14T18:40:17.595Z,4.93
2018-05-14T18:42:46.062Z,4.80
2018-05-14T18:45:13.582Z,5.80
2018-05-14T18:47:41.796Z,5.40
2018-05-14T18:50:09.270Z,5.57
2018-05-14T18:52:36.793Z,5.83
2018-05-14T18:55:04.272Z,5.47
2018-05-14T18:57:31.843Z,5.77
2018-05-14T18:59:59.369Z,5.33
2018-05-14T19:02:26.855Z,5.83
2018-05-14T19:04:54.419Z,5.73
2018-05-14T19:07:21.866Z,5.40
2018-05-14T19:09:49.315Z,6.40
2018-05-14T19:12:16.819Z,6.63
2018-05-14T19:17:50.379Z,5.63
2018-05-14T19:20:17.847Z,6.50
2018-05-14T19:22:50.923Z,6.53
2018-05-14T19:25:18.378Z,6.10
2018-05-14T19:27:51.574Z,6.90
2018-05-14T19:30:19.043Z,7.77
2018-05-14T19:32:46.482Z,6.00
2018-05-14T19:35:19.574Z,6.20
2018-05-14T19:37:47.050Z,6.67
2018-05-14T19:40:20.254Z,6.47
2018-05-14T19:42:47.702Z,6.37
2018-05-14T19:45:15.199Z,6.90
2018-05-14T19:47:42.710Z,6.80
2018-05-14T19:50:10.235Z,6.97
2018-05-14T19:52:37.724Z,6.30
2018-05-14T19:55:05.173Z,6.63
2018-05-14T19:57:32.643Z,6.93
2018-05-14T20:00:01.725Z,7.37
2018-05-14T20:02:29.198Z,7.20
2018-05-14T20:04:56.759Z,7.93
2018-05-14T20:07:24.398Z,7.47
2018-05-14T20:09:51.836Z,7.17
2018-05-14T20:12:19.318Z,8.40
2018-05-14T20:14:46.761Z,7.63
2018-05-14T20:17:14.336Z,8.30
2018-05-14T20:19:41.777Z,8.10
2018-05-14T20:22:09.236Z,9.00
2018-05-14T20:24:36.712Z,8.90
2018-05-14T20:27:05.119Z,8.67
2018-05-14T20:29:33.442Z,7.77
2018-05-14T20:32:01.902Z,8.60
2018-05-14T20:34:29.391Z,9.30
2018-05-14T20:36:58.369Z,10.20
2018-05-14T20:39:25.926Z,8.80
2018-05-14T20:41:53.686Z,8.00
2018-05-14T20:44:21.122Z,8.90
2018-05-14T20:46:48.599Z,9.20
2018-05-14T20:49:16.174Z,8.37
2018-05-14T20:51:43.634Z,8.63
2018-05-14T20:54:11.283Z,8.60
2018-05-14T20:56:38.864Z,7.90
2018-05-14T20:59:07.125Z,8.07
2018-05-14T21:01:36.105Z,9.00
2018-05-14T21:04:04.361Z,7.73
2018-05-14T21:06:31.859Z,8.00
2018-05-14T21:09:00.104Z,8.40
2018-05-14T21:11:27.603Z,8.07
2018-05-14T21:13:55.926Z,8.13
2018-05-14T21:16:23.394Z,8.60
2018-05-14T21:18:50.855Z,7.50
2018-05-14T21:21:18.434Z,8.60
2018-05-14T21:23:46.781Z,8.60
2018-05-14T21:26:14.234Z,8.70
2018-05-14T21:28:41.804Z,7.70
2018-05-14T21:31:09.367Z,7.97
2018-05-14T21:33:37.865Z,8.50
2018-05-14T21:36:05.530Z,7.50
2018-05-14T21:38:33.764Z,8.00
2018-05-14T21:41:01.240Z,8.50
2018-05-14T21:43:28.785Z,8.27
2018-05-14T21:45:56.942Z,8.03
2018-05-14T21:48:24.408Z,8.13
2018-05-14T21:50:51.845Z,8.60
2018-05-14T21:53:19.314Z,8.23
2018-05-14T21:55:47.776Z,8.47
2018-05-14T21:58:15.226Z,7.70
2018-05-14T22:00:42.782Z,8.17
2018-05-14T22:03:10.255Z,7.93
2018-05-14T22:08:33.001Z,8.40
2018-05-14T22:11:00.499Z,8.57
2018-05-14T22:13:27.971Z,8.37
2018-05-14T22:15:56.187Z,7.97
2018-05-14T22:18:23.679Z,8.73
2018-05-14T22:20:51.101Z,8.30
2018-05-14T22:23:18.614Z,7.47
2018-05-14T22:25:46.853Z,9.27
2018-05-14T22:28:14.289Z,7.93
2018-05-14T22:30:41.762Z,8.27
2018-05-14T22:33:09.220Z,9.47
2018-05-14T22:35:36.783Z,7.97
2018-05-14T22:38:04.245Z,8.63
2018-05-14T22:40:31.808Z,7.83
2018-05-14T22:42:59.253Z,9.10
2018-05-14T22:45:26.831Z,8.00
2018-05-14T22:47:54.573Z,9.33
2018-05-14T22:50:22.162Z,8.73
2018-05-14T22:52:50.404Z,8.10
2018-05-14T22:55:17.960Z,9.43
2018-05-14T22:57:45.419Z,8.63
2018-05-14T23:00:13.707Z,9.17
2018-05-14T23:02:41.253Z,9.60
2018-05-14T23:05:09.015Z,8.23
2018-05-14T23:07:36.583Z,8.97
2018-05-14T23:10:04.039Z,9.20
2018-05-14T23:12:31.586Z,8.83
2018-05-14T23:14:59.061Z,8.87
2018-05-14T23:17:26.542Z,9.10
2018-05-14T23:19:54.774Z,8.70
2018-05-14T23:22:22.231Z,8.37
2018-05-14T23:24:49.774Z,9.17
2018-05-14T23:27:17.247Z,9.17
2018-05-14T23:29:44.826Z,8.97
2018-05-14T23:32:12.292Z,9.27
2018-05-14T23:34:40.525Z,8.70
2018-05-14T23:37:07.974Z,8.87
2018-05-14T23:39:35.540Z,8.53
2018-05-14T23:42:02.990Z,9.17
2018-05-14T23:44:30.446Z,8.13
2018-05-14T23:46:58.333Z,8.63
2018-05-14T23:49:26.450Z,8.70
2018-05-14T23:51:53.908Z,9.07
2018-05-14T23:54:22.243Z,9.23
2018-05-14T23:56:49.820Z,8.73
2018-05-14T23:59:18.035Z,7.90
